createdAt,value
2018-08-16T00:00:13.570Z,4.80
2018-08-16T00:02:41.791Z,4.75
2018-08-16T00:05:10.473Z,4.55
2018-08-16T00:07:38.697Z,4.30
2018-08-16T00:10:10.426Z,5.35
2018-08-16T00:12:38.646Z,4.97
2018-08-16T00:15:07.676Z,4.60
2018-08-16T00:17:35.882Z,5.03
2018-08-16T00:20:04.650Z,5.20
2018-08-16T00:22:32.858Z,4.10
2018-08-16T00:25:01.163Z,4.58
2018-08-16T00:27:29.398Z,5.25
2018-08-16T00:29:57.621Z,6.42
2018-08-16T00:32:26.122Z,4.80
2018-08-16T00:34:55.090Z,4.37
2018-08-16T00:37:23.336Z,4.78
2018-08-16T00:39:51.646Z,4.62
2018-08-16T00:42:19.902Z,4.87
2018-08-16T00:44:48.204Z,4.87
2018-08-16T00:47:16.479Z,5.58
2018-08-16T00:49:44.737Z,4.67
2018-08-16T00:52:12.964Z,4.50
2018-08-16T00:54:41.180Z,5.50
2018-08-16T00:57:09.392Z,4.53
2018-08-16T00:59:37.625Z,5.85
2018-08-16T01:02:06.123Z,4.80
2018-08-16T01:04:34.331Z,4.83
2018-08-16T01:07:02.541Z,4.53
2018-08-16T01:09:30.764Z,5.37
2018-08-16T01:11:58.984Z,5.20
2018-08-16T01:14:27.235Z,9.75
2018-08-16T01:16:55.480Z,5.12
2018-08-16T01:19:23.715Z,4.83
2018-08-16T01:21:51.961Z,4.92
2018-08-16T01:24:20.188Z,4.70
2018-08-16T01:26:48.432Z,5.08
2018-08-16T01:29:16.677Z,4.45
2018-08-16T01:31:44.908Z,4.28
2018-08-16T01:34:13.167Z,5.00
2018-08-16T01:36:41.403Z,6.12
2018-08-16T01:39:09.943Z,4.85
2018-08-16T01:41:38.505Z,5.33
2018-08-16T01:44:06.717Z,5.78
2018-08-16T01:46:35.197Z,5.20
2018-08-16T01:49:03.435Z,5.03
2018-08-16T01:51:31.667Z,4.95
2018-08-16T01:53:59.865Z,4.97
2018-08-16T01:56:28.080Z,5.12
2018-08-16T01:58:56.300Z,5.55
2018-08-16T02:01:24.562Z,5.75
2018-08-16T02:03:52.781Z,6.05
2018-08-16T02:06:20.989Z,6.35
2018-08-16T02:08:49.214Z,6.67
2018-08-16T02:11:17.461Z,6.28
2018-08-16T02:13:45.684Z,6.55
2018-08-16T02:16:13.886Z,5.53
2018-08-16T02:18:42.108Z,6.25
2018-08-16T02:21:10.304Z,6.22
2018-08-16T02:23:38.529Z,5.90
2018-08-16T02:26:06.731Z,7.85
2018-08-16T02:28:34.993Z,6.60
2018-08-16T02:31:03.191Z,6.97
2018-08-16T02:33:31.409Z,7.50
2018-08-16T02:35:59.597Z,7.78
2018-08-16T02:38:27.815Z,7.45
2018-08-16T02:40:56.022Z,8.03
2018-08-16T02:43:24.241Z,6.90
2018-08-16T02:45:52.571Z,7.75
2018-08-16T02:48:20.774Z,7.67
2018-08-16T02:50:49.042Z,7.78
2018-08-16T02:53:17.219Z,6.70
2018-08-16T02:55:45.465Z,6.37
2018-08-16T02:58:13.668Z,7.20
2018-08-16T03:00:41.864Z,7.28
2018-08-16T03:03:10.081Z,7.65
2018-08-16T03:05:38.278Z,7.37
2018-08-16T03:08:06.780Z,6.70
2018-08-16T03:10:35.012Z,7.37
2018-08-16T03:13:03.203Z,8.70
2018-08-16T03:15:31.465Z,8.13
2018-08-16T03:17:59.695Z,8.45
2018-08-16T03:20:27.903Z,8.85
2018-08-16T03:22:56.101Z,9.43
2018-08-16T03:28:15.056Z,9.63
2018-08-16T03:30:43.276Z,8.95
2018-08-16T03:33:11.479Z,9.10
2018-08-16T03:35:39.706Z,9.60
2018-08-16T03:38:07.938Z,9.65
2018-08-16T03:40:36.138Z,8.53
2018-08-16T03:43:04.358Z,8.35
2018-08-16T03:45:32.611Z,7.67
2018-08-16T03:48:00.866Z,9.13
2018-08-16T03:50:29.053Z,8.18
2018-08-16T03:52:57.284Z,7.80
2018-08-16T03:55:25.556Z,7.92
2018-08-16T03:57:53.793Z,10.93
2018-08-16T04:00:22.083Z,8.00
2018-08-16T04:02:50.321Z,7.70
2018-08-16T04:05:18.560Z,7.83
2018-08-16T04:07:46.818Z,7.37
2018-08-16T04:10:15.045Z,7.50
2018-08-16T04:12:43.260Z,8.10
2018-08-16T04:15:11.480Z,8.85
2018-08-16T04:17:39.698Z,7.33
2018-08-16T04:20:07.922Z,8.25
2018-08-16T04:22:36.463Z,7.65
2018-08-16T04:25:05.129Z,7.80
2018-08-16T04:27:33.330Z,8.18
2018-08-16T04:30:01.568Z,7.67
2018-08-16T04:32:29.790Z,7.92
2018-08-16T04:34:58.063Z,7.55
2018-08-16T04:37:26.246Z,7.58
2018-08-16T04:39:54.458Z,9.80
2018-08-16T04:42:22.669Z,8.30
2018-08-16T04:44:50.931Z,7.92
2018-08-16T04:47:19.167Z,7.00
2018-08-16T04:49:47.425Z,7.00
2018-08-16T04:52:15.669Z,7.17
2018-08-16T04:54:43.951Z,8.35
2018-08-16T04:57:12.220Z,8.40
2018-08-16T04:59:40.805Z,8.28
2018-08-16T05:02:09.001Z,8.55
2018-08-16T05:04:37.238Z,7.85
2018-08-16T05:07:12.236Z,9.03
2018-08-16T05:09:40.458Z,8.70
2018-08-16T05:12:08.687Z,8.55
2018-08-16T05:14:36.895Z,7.95
2018-08-16T05:17:05.197Z,8.10
2018-08-16T05:19:33.439Z,8.48
2018-08-16T05:22:01.657Z,8.85
2018-08-16T05:24:29.858Z,8.75
2018-08-16T05:26:58.070Z,8.88
2018-08-16T05:29:26.304Z,9.05
2018-08-16T05:31:54.523Z,9.13
2018-08-16T05:34:22.780Z,8.93
2018-08-16T05:36:51.188Z,8.70
2018-08-16T05:39:19.704Z,8.83
2018-08-16T05:41:48.023Z,7.83
2018-08-16T05:44:16.362Z,10.20
2018-08-16T05:46:44.714Z,10.58
2018-08-16T05:49:12.924Z,9.65
2018-08-16T05:51:41.134Z,8.98
2018-08-16T05:54:09.366Z,9.10
2018-08-16T05:56:37.599Z,9.00
2018-08-16T05:59:05.902Z,9.73
2018-08-16T06:01:34.175Z,9.20
2018-08-16T06:04:02.389Z,9.10
2018-08-16T06:06:30.631Z,7.92
2018-08-16T06:08:58.984Z,8.68
2018-08-16T06:11:27.263Z,8.18
2018-08-16T06:13:55.487Z,9.00
2018-08-16T06:16:23.763Z,9.53
2018-08-16T06:18:52.013Z,7.70
2018-08-16T06:21:20.616Z,7.67
2018-08-16T06:23:48.856Z,8.30
2018-08-16T06:26:17.165Z,8.88
2018-08-16T06:28:45.496Z,7.75
2018-08-16T06:31:13.800Z,8.88
2018-08-16T06:33:42.016Z,9.30
2018-08-16T06:36:10.235Z,8.70
2018-08-16T06:38:38.470Z,10.25
2018-08-16T06:41:06.705Z,8.85
2018-08-16T06:43:34.936Z,9.10
2018-08-16T06:46:03.212Z,9.60
2018-08-16T06:48:31.427Z,9.13
2018-08-16T06:50:59.692Z,8.30
2018-08-16T06:53:28.144Z,8.10
2018-08-16T06:55:56.386Z,7.75
2018-08-16T06:58:24.688Z,7.97
2018-08-16T07:00:52.857Z,8.78
2018-08-16T07:03:21.303Z,7.70
2018-08-16T07:05:49.606Z,8.10
2018-08-16T07:08:17.971Z,7.75
2018-08-16T07:10:46.514Z,6.95
2018-08-16T07:13:14.755Z,7.50
2018-08-16T07:15:42.984Z,6.28
2018-08-16T07:18:11.235Z,7.28
2018-08-16T07:20:39.444Z,7.15
2018-08-16T07:23:07.673Z,6.67
2018-08-16T07:25:35.885Z,7.10
2018-08-16T07:28:04.117Z,6.17
2018-08-16T07:30:32.394Z,6.42
2018-08-16T07:33:00.630Z,6.72
2018-08-16T07:35:28.883Z,6.58
2018-08-16T07:37:57.161Z,7.05
2018-08-16T07:40:25.386Z,7.15
2018-08-16T07:42:53.626Z,7.65
2018-08-16T07:45:21.854Z,7.70
2018-08-16T07:47:50.095Z,6.60
2018-08-16T07:50:18.360Z,7.47
2018-08-16T07:52:46.615Z,8.18
2018-08-16T07:55:14.879Z,7.17
2018-08-16T07:57:43.096Z,6.75
2018-08-16T08:00:14.192Z,6.50
2018-08-16T08:02:42.554Z,6.30
2018-08-16T08:05:11.152Z,5.90
2018-08-16T08:07:39.539Z,5.90
2018-08-16T08:10:08.103Z,6.12
2018-08-16T08:12:36.349Z,5.83
2018-08-16T08:15:06.430Z,6.25
2018-08-16T08:17:34.666Z,5.92
2018-08-16T08:20:02.944Z,4.75
2018-08-16T08:22:31.194Z,4.80
2018-08-16T08:24:59.479Z,6.10
2018-08-16T08:27:27.718Z,7.60
2018-08-16T08:29:55.940Z,5.92
2018-08-16T08:32:24.207Z,5.87
2018-08-16T08:34:52.555Z,6.33
2018-08-16T08:37:32.265Z,5.33
2018-08-16T08:40:00.518Z,6.00
2018-08-16T08:42:28.720Z,5.55
2018-08-16T08:44:56.962Z,6.25
2018-08-16T08:47:29.416Z,11.15
2018-08-16T08:49:57.658Z,5.35
2018-08-16T08:52:25.967Z,4.95
2018-08-16T08:55:05.555Z,13.93
2018-08-16T08:57:45.293Z,6.65
2018-08-16T09:00:13.549Z,8.45
2018-08-16T09:02:41.782Z,11.93
2018-08-16T09:05:10.048Z,5.62
2018-08-16T09:07:38.352Z,39.65
2018-08-16T09:11:17.591Z,7.62
2018-08-16T09:13:58.500Z,5.72
2018-08-16T09:16:30.351Z,15.85
2018-08-16T09:18:58.752Z,5.95
2018-08-16T09:21:27.517Z,5.95
2018-08-16T09:23:55.790Z,8.93
2018-08-16T09:29:23.676Z,5.90
2018-08-16T09:32:04.146Z,7.85
2018-08-16T09:34:32.461Z,5.22
2018-08-16T09:37:00.766Z,5.30
2018-08-16T09:39:29.089Z,13.60
2018-08-16T09:41:57.254Z,6.10
2018-08-16T09:44:25.537Z,9.58
2018-08-16T09:47:06.392Z,18.35
2018-08-16T09:49:37.337Z,8.63
2018-08-16T09:52:06.427Z,5.80
2018-08-16T09:54:34.711Z,3.95
2018-08-16T09:57:04.124Z,6.80
2018-08-16T09:59:32.379Z,6.78
2018-08-16T10:02:00.674Z,6.37
2018-08-16T10:04:29.187Z,6.72
2018-08-16T10:06:57.657Z,4.47
2018-08-16T10:09:28.111Z,5.85
2018-08-16T10:11:57.190Z,4.25
2018-08-16T10:14:25.403Z,3.83
2018-08-16T10:16:53.872Z,3.95
2018-08-16T10:19:22.742Z,3.87
2018-08-16T10:21:51.011Z,4.90
2018-08-16T10:24:19.264Z,3.75
2018-08-16T10:26:47.503Z,4.05
2018-08-16T10:29:15.736Z,3.83
2018-08-16T10:31:44.004Z,3.52
2018-08-16T10:34:12.247Z,3.83
2018-08-16T10:36:40.555Z,4.00
2018-08-16T10:39:14.016Z,4.10
2018-08-16T10:41:42.311Z,3.30
2018-08-16T10:44:11.093Z,4.42
2018-08-16T10:46:39.432Z,3.15
2018-08-16T10:49:07.699Z,4.42
2018-08-16T10:51:35.971Z,4.47
2018-08-16T10:54:04.250Z,5.42
2018-08-16T10:56:32.509Z,5.30
2018-08-16T10:59:00.810Z,3.27
2018-08-16T11:01:29.162Z,2.87
2018-08-16T11:03:57.303Z,2.72
2018-08-16T11:06:25.636Z,2.80
2018-08-16T11:08:53.918Z,2.42
2018-08-16T11:11:22.278Z,2.67
2018-08-16T11:13:50.553Z,2.40
2018-08-16T11:16:18.834Z,2.60
2018-08-16T11:18:47.057Z,2.70
2018-08-16T11:21:15.393Z,3.08
2018-08-16T11:23:43.629Z,3.98
2018-08-16T11:26:11.878Z,3.30
2018-08-16T11:28:40.117Z,4.67
2018-08-16T11:31:08.370Z,3.22
2018-08-16T11:33:36.609Z,5.50
2018-08-16T11:36:04.833Z,2.77
2018-08-16T11:38:33.102Z,3.12
2018-08-16T11:41:01.366Z,2.58
2018-08-16T11:43:29.646Z,2.83
2018-08-16T11:45:57.907Z,5.33
2018-08-16T11:48:26.187Z,3.30
2018-08-16T11:50:54.548Z,2.75
2018-08-16T11:53:22.802Z,2.70
2018-08-16T11:55:51.050Z,2.60
2018-08-16T11:58:19.295Z,2.40
2018-08-16T12:00:47.535Z,2.85
2018-08-16T12:03:15.774Z,2.50
2018-08-16T12:05:44.098Z,3.27
2018-08-16T12:08:12.395Z,2.98
2018-08-16T12:10:40.768Z,2.58
2018-08-16T12:13:08.994Z,2.70
2018-08-16T12:15:37.225Z,2.87
2018-08-16T12:18:05.659Z,2.02
2018-08-16T12:20:33.893Z,2.45
2018-08-16T12:23:02.176Z,2.75
2018-08-16T12:25:30.391Z,2.60
2018-08-16T12:27:58.632Z,3.80
2018-08-16T12:30:26.881Z,2.60
2018-08-16T12:32:55.132Z,3.55
2018-08-16T12:35:23.379Z,3.02
2018-08-16T12:37:51.641Z,2.62
2018-08-16T12:40:19.934Z,3.42
2018-08-16T12:42:48.202Z,3.30
2018-08-16T12:45:16.446Z,2.58
2018-08-16T12:47:44.818Z,3.00
2018-08-16T12:50:12.956Z,2.83
2018-08-16T12:52:41.208Z,2.20
2018-08-16T12:55:09.448Z,2.47
2018-08-16T12:57:37.674Z,2.33
2018-08-16T13:00:20.829Z,2.45
2018-08-16T13:02:49.232Z,5.00
2018-08-16T13:05:17.561Z,2.87
2018-08-16T13:07:45.803Z,2.47
2018-08-16T13:10:14.393Z,2.85
2018-08-16T13:12:42.611Z,2.52
2018-08-16T13:15:11.384Z,2.77
2018-08-16T13:17:40.185Z,2.40
2018-08-16T13:20:09.187Z,3.10
2018-08-16T13:22:37.415Z,2.52
2018-08-16T13:25:05.847Z,4.45
2018-08-16T13:27:34.157Z,2.92
2018-08-16T13:30:02.374Z,2.50
2018-08-16T13:32:30.689Z,2.67
2018-08-16T13:34:58.933Z,2.27
2018-08-16T13:37:27.183Z,2.62
2018-08-16T13:39:55.440Z,2.35
2018-08-16T13:42:23.740Z,2.90
2018-08-16T13:44:51.999Z,2.85
2018-08-16T13:47:20.274Z,2.85
2018-08-16T13:49:49.904Z,2.60
2018-08-16T13:52:19.419Z,2.58
2018-08-16T13:54:47.691Z,2.70
2018-08-16T13:57:15.953Z,3.90
2018-08-16T13:59:44.196Z,2.77
2018-08-16T14:02:12.419Z,2.50
2018-08-16T14:04:40.672Z,2.70
2018-08-16T14:07:08.976Z,5.75
2018-08-16T14:09:37.212Z,2.42
2018-08-16T14:12:05.460Z,2.58
2018-08-16T14:14:33.767Z,2.20
2018-08-16T14:17:02.027Z,2.22
2018-08-16T14:19:30.235Z,2.20
2018-08-16T14:21:58.500Z,2.47
2018-08-16T14:24:26.746Z,1.85
2018-08-16T14:26:54.978Z,2.12
2018-08-16T14:29:23.206Z,2.37
2018-08-16T14:31:51.488Z,3.20
2018-08-16T14:34:19.731Z,2.85
2018-08-16T14:36:47.992Z,3.00
2018-08-16T14:39:16.323Z,1.90
2018-08-16T14:41:44.609Z,2.40
2018-08-16T14:44:12.829Z,3.75
2018-08-16T14:46:41.072Z,2.35
2018-08-16T14:49:09.304Z,2.20
2018-08-16T14:51:37.528Z,2.00
2018-08-16T14:54:05.807Z,2.77
2018-08-16T14:56:34.029Z,2.00
2018-08-16T14:59:02.298Z,2.35
2018-08-16T15:01:30.511Z,2.20
2018-08-16T15:03:58.798Z,2.95
2018-08-16T15:06:27.140Z,2.25
2018-08-16T15:08:55.402Z,2.20
2018-08-16T15:11:23.973Z,2.25
2018-08-16T15:13:52.183Z,2.25
2018-08-16T15:16:20.424Z,2.20
2018-08-16T15:18:48.622Z,2.30
2018-08-16T15:21:16.835Z,2.15
2018-08-16T15:23:45.061Z,2.33
2018-08-16T15:26:13.266Z,2.55
2018-08-16T15:28:41.490Z,2.42
2018-08-16T15:31:09.823Z,4.75
2018-08-16T15:33:38.039Z,2.27
2018-08-16T15:36:06.405Z,2.87
2018-08-16T15:38:34.642Z,2.52
2018-08-16T15:41:02.940Z,2.98
2018-08-16T15:43:31.134Z,2.50
2018-08-16T15:45:59.331Z,2.60
2018-08-16T15:48:27.563Z,2.50
2018-08-16T15:50:56.659Z,2.90
2018-08-16T15:53:24.916Z,2.80
2018-08-16T15:55:53.144Z,3.15
2018-08-16T15:58:21.390Z,2.70
2018-08-16T16:00:49.621Z,2.80
2018-08-16T16:03:17.857Z,4.00
2018-08-16T16:05:46.198Z,3.75
2018-08-16T16:08:14.309Z,2.58
2018-08-16T16:10:42.554Z,2.35
2018-08-16T16:13:10.810Z,3.20
2018-08-16T16:15:39.183Z,2.60
2018-08-16T16:18:07.478Z,2.70
2018-08-16T16:20:35.703Z,2.60
2018-08-16T16:23:03.997Z,4.10
2018-08-16T16:25:32.215Z,4.08
2018-08-16T16:28:00.454Z,2.50
2018-08-16T16:30:28.747Z,2.60
2018-08-16T16:32:56.980Z,2.40
2018-08-16T16:35:25.677Z,2.70
2018-08-16T16:37:53.938Z,2.83
2018-08-16T16:40:22.177Z,2.60
2018-08-16T16:42:50.434Z,2.72
2018-08-16T16:45:18.977Z,2.65
2018-08-16T16:47:47.210Z,2.95
2018-08-16T16:50:15.449Z,2.25
2018-08-16T16:52:43.672Z,3.12
2018-08-16T16:55:11.914Z,2.45
2018-08-16T16:57:40.147Z,2.72
2018-08-16T17:00:08.985Z,5.10
2018-08-16T17:02:37.289Z,2.67
2018-08-16T17:05:05.631Z,2.80
2018-08-16T17:07:33.859Z,2.60
2018-08-16T17:10:02.074Z,2.67
2018-08-16T17:12:30.369Z,2.70
2018-08-16T17:14:58.600Z,3.25
2018-08-16T17:17:26.880Z,2.90
2018-08-16T17:19:55.111Z,2.80
2018-08-16T17:22:23.512Z,2.50
2018-08-16T17:24:51.896Z,3.25
2018-08-16T17:27:20.161Z,4.22
2018-08-16T17:29:48.848Z,2.22
2018-08-16T17:32:17.207Z,2.98
2018-08-16T17:34:45.447Z,2.72
2018-08-16T17:37:13.737Z,3.37
2018-08-16T17:39:41.943Z,3.45
2018-08-16T17:42:10.219Z,2.80
2018-08-16T17:44:38.499Z,2.65
2018-08-16T17:47:06.784Z,3.60
2018-08-16T17:49:34.997Z,2.55
2018-08-16T17:52:03.382Z,3.52
2018-08-16T17:54:31.635Z,2.92
2018-08-16T17:56:59.888Z,2.60
2018-08-16T17:59:28.402Z,2.85
2018-08-16T18:01:56.684Z,4.10
2018-08-16T18:04:25.675Z,2.80
2018-08-16T18:06:54.079Z,2.77
2018-08-16T18:09:22.441Z,2.30
2018-08-16T18:11:51.044Z,2.87
2018-08-16T18:14:19.497Z,2.90
2018-08-16T18:16:47.878Z,2.92
2018-08-16T18:19:16.111Z,2.70
2018-08-16T18:21:44.342Z,2.65
2018-08-16T18:24:13.012Z,3.22
2018-08-16T18:26:41.266Z,3.75
2018-08-16T18:29:09.606Z,2.83
2018-08-16T18:31:38.212Z,4.85
2018-08-16T18:34:06.603Z,3.65
2018-08-16T18:36:34.865Z,4.70
2018-08-16T18:39:03.388Z,3.30
2018-08-16T18:41:31.684Z,3.50
2018-08-16T18:43:59.926Z,3.70
2018-08-16T18:46:32.372Z,4.80
2018-08-16T18:49:00.763Z,3.58
2018-08-16T18:51:28.999Z,6.37
2018-08-16T18:53:57.262Z,4.65
2018-08-16T18:56:25.695Z,6.97
2018-08-16T18:58:53.948Z,3.83
2018-08-16T19:01:22.204Z,6.40
2018-08-16T19:03:50.447Z,3.80
2018-08-16T19:06:18.735Z,3.55
2018-08-16T19:08:47.027Z,3.62
2018-08-16T19:11:15.288Z,3.40
2018-08-16T19:13:43.539Z,5.03
2018-08-16T19:16:11.773Z,4.60
2018-08-16T19:18:40.138Z,3.30
2018-08-16T19:21:08.293Z,3.08
2018-08-16T19:23:36.578Z,5.15
2018-08-16T19:26:04.843Z,3.12
2018-08-16T19:28:33.111Z,3.87
2018-08-16T19:31:01.878Z,3.58
2018-08-16T19:33:30.487Z,3.02
2018-08-16T19:35:58.815Z,3.37
2018-08-16T19:38:27.057Z,6.03
2018-08-16T19:40:55.295Z,5.45
2018-08-16T19:43:23.579Z,3.25
2018-08-16T19:45:51.818Z,3.10
2018-08-16T19:48:20.212Z,3.25
2018-08-16T19:50:48.387Z,3.40
2018-08-16T19:53:16.621Z,5.25
2018-08-16T19:55:44.875Z,4.00
2018-08-16T19:58:13.353Z,5.42
2018-08-16T20:00:41.640Z,3.60
2018-08-16T20:03:09.914Z,3.98
2018-08-16T20:05:38.177Z,4.00
2018-08-16T20:08:06.946Z,3.47
2018-08-16T20:10:35.200Z,3.90
2018-08-16T20:13:03.446Z,3.40
2018-08-16T20:15:31.667Z,4.37
2018-08-16T20:17:59.926Z,4.17
2018-08-16T20:20:28.230Z,4.47
2018-08-16T20:22:56.821Z,5.00
2018-08-16T20:25:25.084Z,4.03
2018-08-16T20:27:53.538Z,4.92
2018-08-16T20:30:21.847Z,4.12
2018-08-16T20:32:50.143Z,4.08
2018-08-16T20:35:18.646Z,3.87
2018-08-16T20:40:37.369Z,3.40
2018-08-16T20:43:05.559Z,4.42
2018-08-16T20:45:33.754Z,4.70
2018-08-16T20:48:01.983Z,4.03
2018-08-16T20:50:30.250Z,5.50
2018-08-16T20:52:58.857Z,9.08
2018-08-16T20:55:27.118Z,5.53
2018-08-16T20:57:56.775Z,6.65
2018-08-16T21:00:25.087Z,6.35
2018-08-16T21:02:53.316Z,6.03
2018-08-16T21:05:21.557Z,4.35
2018-08-16T21:07:49.807Z,4.15
2018-08-16T21:10:18.308Z,3.60
2018-08-16T21:12:46.460Z,3.50
2018-08-16T21:15:14.686Z,3.50
2018-08-16T21:17:42.933Z,3.77
2018-08-16T21:20:11.188Z,5.30
2018-08-16T21:22:39.898Z,3.85
2018-08-16T21:25:08.393Z,3.30
2018-08-16T21:27:36.668Z,4.60
2018-08-16T21:30:06.470Z,4.65
2018-08-16T21:32:34.727Z,3.25
2018-08-16T21:35:02.941Z,4.50
2018-08-16T21:37:31.167Z,3.62
2018-08-16T21:39:59.375Z,3.20
2018-08-16T21:42:27.620Z,4.55
2018-08-16T21:44:55.817Z,3.83
2018-08-16T21:47:24.044Z,3.55
2018-08-16T21:49:52.251Z,3.90
2018-08-16T21:52:20.466Z,3.50
2018-08-16T21:54:48.705Z,3.22
2018-08-16T21:57:16.954Z,4.50
2018-08-16T21:59:45.179Z,3.95
2018-08-16T22:02:13.923Z,4.37
2018-08-16T22:04:42.625Z,7.37
2018-08-16T22:07:17.340Z,3.35
2018-08-16T22:09:45.596Z,3.75
2018-08-16T22:12:13.804Z,4.78
2018-08-16T22:14:42.015Z,3.45
2018-08-16T22:17:10.242Z,3.58
2018-08-16T22:19:38.456Z,4.15
2018-08-16T22:22:06.639Z,4.05
2018-08-16T22:24:34.881Z,4.10
2018-08-16T22:27:03.105Z,3.60
2018-08-16T22:29:31.309Z,3.65
2018-08-16T22:31:59.525Z,4.40
2018-08-16T22:34:27.751Z,4.47
2018-08-16T22:36:56.003Z,3.98
2018-08-16T22:39:24.222Z,4.12
2018-08-16T22:41:52.458Z,3.75
2018-08-16T22:44:20.682Z,3.85
2018-08-16T22:46:48.907Z,3.80
2018-08-16T22:49:17.157Z,4.72
2018-08-16T22:51:45.398Z,4.00
2018-08-16T22:54:13.591Z,4.60
2018-08-16T22:56:41.807Z,4.80
2018-08-16T22:59:10.018Z,5.17
2018-08-16T23:01:38.227Z,5.05
2018-08-16T23:04:06.463Z,5.25
2018-08-16T23:06:35.016Z,4.42
2018-08-16T23:09:04.468Z,5.62
2018-08-16T23:11:32.702Z,5.53
2018-08-16T23:14:00.935Z,4.00
2018-08-16T23:16:29.141Z,6.12
2018-08-16T23:18:57.435Z,4.17
2018-08-16T23:21:25.673Z,8.18
2018-08-16T23:23:54.459Z,4.25
2018-08-16T23:26:22.707Z,4.42
2018-08-16T23:28:50.931Z,4.30
2018-08-16T23:31:19.231Z,4.33
2018-08-16T23:33:47.514Z,4.45
2018-08-16T23:36:15.759Z,4.05
2018-08-16T23:38:44.049Z,4.20
2018-08-16T23:41:12.270Z,3.83
2018-08-16T23:43:40.496Z,3.92
2018-08-16T23:46:08.773Z,4.00
2018-08-16T23:48:36.970Z,4.00
2018-08-16T23:51:05.601Z,4.40
2018-08-16T23:53:33.798Z,4.40
2018-08-16T23:56:02.030Z,4.72
2018-08-16T23:58:30.247Z,4.60
